sensor_id;sensor_type;location;lat;lon;timestamp;P1;durP1;ratioP1;P2;durP2;ratioP2
8596;SDS011;4336;49.310;8.646;2023-02-28T00:00:08;8.77;;;7.97;;
8596;SDS011;4336;49.310;8.646;2023-02-28T00:02:36;8.40;;;7.70;;
8596;SDS011;4336;49.310;8.646;2023-02-28T00:05:02;7.43;;;6.73;;
8596;SDS011;4336;49.310;8.646;2023-02-28T00:07:31;8.90;;;8.10;;
8596;SDS011;4336;49.310;8.646;2023-02-28T00:09:57;9.40;;;8.50;;
8596;SDS011;4336;49.310;8.646;2023-02-28T00:12:23;9.03;;;8.13;;
8596;SDS011;4336;49.310;8.646;2023-02-28T00:14:50;8.83;;;8.13;;
8596;SDS011;4336;49.310;8.646;2023-02-28T00:17:16;8.43;;;7.60;;
8596;SDS011;4336;49.310;8.646;2023-02-28T00:19:47;9.23;;;8.43;;
8596;SDS011;4336;49.310;8.646;2023-02-28T00:22:14;9.60;;;8.60;;
8596;SDS011;4336;49.310;8.646;2023-02-28T00:24:40;9.43;;;8.47;;
8596;SDS011;4336;49.310;8.646;2023-02-28T00:27:07;9.37;;;7.90;;
8596;SDS011;4336;49.310;8.646;2023-02-28T00:29:33;9.40;;;8.50;;
8596;SDS011;4336;49.310;8.646;2023-02-28T00:31:59;8.60;;;7.80;;
8596;SDS011;4336;49.310;8.646;2023-02-28T00:34:25;7.70;;;6.97;;
8596;SDS011;4336;49.310;8.646;2023-02-28T00:36:52;10.43;;;8.73;;
8596;SDS011;4336;49.310;8.646;2023-02-28T00:39:18;9.60;;;8.70;;
8596;SDS011;4336;49.310;8.646;2023-02-28T00:41:44;8.50;;;7.57;;
8596;SDS011;4336;49.310;8.646;2023-02-28T00:44:10;8.20;;;7.50;;
8596;SDS011;4336;49.310;8.646;2023-02-28T00:46:36;9.77;;;8.77;;
8596;SDS011;4336;49.310;8.646;2023-02-28T00:49:02;9.60;;;8.70;;
8596;SDS011;4336;49.310;8.646;2023-02-28T00:51:28;9.03;;;8.13;;
8596;SDS011;4336;49.310;8.646;2023-02-28T00:53:56;8.30;;;7.50;;
8596;SDS011;4336;49.310;8.646;2023-02-28T00:56:23;9.17;;;8.37;;
8596;SDS011;4336;49.310;8.646;2023-02-28T00:58:49;9.67;;;8.67;;
8596;SDS011;4336;49.310;8.646;2023-02-28T01:01:15;9.53;;;8.63;;
8596;SDS011;4336;49.310;8.646;2023-02-28T01:03:43;9.90;;;8.97;;
8596;SDS011;4336;49.310;8.646;2023-02-28T01:06:09;9.07;;;8.17;;
8596;SDS011;4336;49.310;8.646;2023-02-28T01:08:37;7.73;;;7.03;;
8596;SDS011;4336;49.310;8.646;2023-02-28T01:11:07;9.40;;;8.50;;
8596;SDS011;4336;49.310;8.646;2023-02-28T01:13:34;10.07;;;9.07;;
8596;SDS011;4336;49.310;8.646;2023-02-28T01:16:00;9.43;;;8.63;;
8596;SDS011;4336;49.310;8.646;2023-02-28T01:18:26;10.87;;;9.77;;
8596;SDS011;4336;49.310;8.646;2023-02-28T01:20:52;8.07;;;7.27;;
8596;SDS011;4336;49.310;8.646;2023-02-28T01:23:19;9.60;;;8.70;;
8596;SDS011;4336;49.310;8.646;2023-02-28T01:25:46;11.23;;;9.23;;
8596;SDS011;4336;49.310;8.646;2023-02-28T01:28:12;10.13;;;9.13;;
8596;SDS011;4336;49.310;8.646;2023-02-28T01:30:38;9.87;;;8.87;;
8596;SDS011;4336;49.310;8.646;2023-02-28T01:33:05;8.37;;;7.57;;
8596;SDS011;4336;49.310;8.646;2023-02-28T01:35:35;8.90;;;8.13;;
8596;SDS011;4336;49.310;8.646;2023-02-28T01:38:01;9.17;;;8.37;;
8596;SDS011;4336;49.310;8.646;2023-02-28T01:40:28;8.33;;;7.30;;
8596;SDS011;4336;49.310;8.646;2023-02-28T01:42:54;8.90;;;8.10;;
8596;SDS011;4336;49.310;8.646;2023-02-28T01:47:50;10.43;;;9.43;;
8596;SDS011;4336;49.310;8.646;2023-02-28T01:50:21;10.17;;;9.17;;
8596;SDS011;4336;49.310;8.646;2023-02-28T01:52:50;10.13;;;9.23;;
8596;SDS011;4336;49.310;8.646;2023-02-28T01:55:18;10.10;;;9.17;;
8596;SDS011;4336;49.310;8.646;2023-02-28T01:57:52;10.17;;;8.97;;
8596;SDS011;4336;49.310;8.646;2023-02-28T02:00:21;10.40;;;9.27;;
8596;SDS011;4336;49.310;8.646;2023-02-28T02:02:49;11.60;;;8.90;;
8596;SDS011;4336;49.310;8.646;2023-02-28T02:05:20;10.30;;;9.30;;
8596;SDS011;4336;49.310;8.646;2023-02-28T02:07:48;9.87;;;8.87;;
8596;SDS011;4336;49.310;8.646;2023-02-28T02:10:20;10.23;;;8.93;;
8596;SDS011;4336;49.310;8.646;2023-02-28T02:15:21;9.03;;;8.20;;
8596;SDS011;4336;49.310;8.646;2023-02-28T02:17:51;10.87;;;9.87;;
8596;SDS011;4336;49.310;8.646;2023-02-28T02:23:20;10.27;;;9.20;;
8596;SDS011;4336;49.310;8.646;2023-02-28T02:28:40;11.70;;;10.43;;
8596;SDS011;4336;49.310;8.646;2023-02-28T02:36:27;8.73;;;7.87;;
8596;SDS011;4336;49.310;8.646;2023-02-28T02:39:02;10.30;;;9.40;;
8596;SDS011;4336;49.310;8.646;2023-02-28T02:44:07;8.77;;;7.87;;
8596;SDS011;4336;49.310;8.646;2023-02-28T02:46:41;10.50;;;9.50;;
8596;SDS011;4336;49.310;8.646;2023-02-28T02:49:09;9.80;;;8.87;;
8596;SDS011;4336;49.310;8.646;2023-02-28T02:51:36;10.73;;;9.63;;
8596;SDS011;4336;49.310;8.646;2023-02-28T02:54:46;10.77;;;9.77;;
8596;SDS011;4336;49.310;8.646;2023-02-28T02:56:54;10.83;;;9.73;;
8596;SDS011;4336;49.310;8.646;2023-02-28T02:59:21;10.30;;;9.30;;
8596;SDS011;4336;49.310;8.646;2023-02-28T03:01:50;10.87;;;9.77;;
8596;SDS011;4336;49.310;8.646;2023-02-28T03:04:18;10.20;;;9.17;;
8596;SDS011;4336;49.310;8.646;2023-02-28T03:06:45;10.77;;;9.77;;
8596;SDS011;4336;49.310;8.646;2023-02-28T03:09:12;10.87;;;9.80;;
8596;SDS011;4336;49.310;8.646;2023-02-28T03:11:38;9.87;;;8.67;;
8596;SDS011;4336;49.310;8.646;2023-02-28T03:19:25;10.60;;;9.50;;
8596;SDS011;4336;49.310;8.646;2023-02-28T03:22:14;10.67;;;9.33;;
8596;SDS011;4336;49.310;8.646;2023-02-28T03:27:09;10.50;;;9.60;;
8596;SDS011;4336;49.310;8.646;2023-02-28T03:29:42;12.40;;;9.87;;
8596;SDS011;4336;49.310;8.646;2023-02-28T03:34:41;8.63;;;7.83;;
8596;SDS011;4336;49.310;8.646;2023-02-28T03:37:12;10.70;;;9.80;;
8596;SDS011;4336;49.310;8.646;2023-02-28T03:39:41;10.87;;;9.87;;
8596;SDS011;4336;49.310;8.646;2023-02-28T03:42:21;9.80;;;8.90;;
8596;SDS011;4336;49.310;8.646;2023-02-28T03:44:50;10.90;;;9.90;;
8596;SDS011;4336;49.310;8.646;2023-02-28T03:47:21;10.93;;;9.93;;
8596;SDS011;4336;49.310;8.646;2023-02-28T03:49:50;11.10;;;8.93;;
8596;SDS011;4336;49.310;8.646;2023-02-28T03:52:19;10.60;;;9.60;;
8596;SDS011;4336;49.310;8.646;2023-02-28T03:54:48;11.73;;;9.77;;
8596;SDS011;4336;49.310;8.646;2023-02-28T03:57:27;14.40;;;8.77;;
8596;SDS011;4336;49.310;8.646;2023-02-28T03:59:59;11.83;;;10.63;;
8596;SDS011;4336;49.310;8.646;2023-02-28T04:02:37;11.30;;;10.20;;
8596;SDS011;4336;49.310;8.646;2023-02-28T04:05:05;11.53;;;10.53;;
8596;SDS011;4336;49.310;8.646;2023-02-28T04:07:31;12.07;;;10.80;;
8596;SDS011;4336;49.310;8.646;2023-02-28T04:09:57;11.27;;;10.20;;
8596;SDS011;4336;49.310;8.646;2023-02-28T04:12:24;10.13;;;9.03;;
8596;SDS011;4336;49.310;8.646;2023-02-28T04:14:50;12.00;;;10.80;;
8596;SDS011;4336;49.310;8.646;2023-02-28T04:17:16;11.43;;;10.37;;
8596;SDS011;4336;49.310;8.646;2023-02-28T04:19:43;10.97;;;9.13;;
8596;SDS011;4336;49.310;8.646;2023-02-28T04:22:09;13.40;;;10.97;;
8596;SDS011;4336;49.310;8.646;2023-02-28T04:24:35;12.50;;;11.30;;
8596;SDS011;4336;49.310;8.646;2023-02-28T04:27:02;12.03;;;10.93;;
8596;SDS011;4336;49.310;8.646;2023-02-28T04:29:32;11.73;;;10.63;;
8596;SDS011;4336;49.310;8.646;2023-02-28T04:31:58;12.43;;;11.20;;
8596;SDS011;4336;49.310;8.646;2023-02-28T04:34:29;11.67;;;10.57;;
8596;SDS011;4336;49.310;8.646;2023-02-28T04:36:55;13.30;;;11.40;;
8596;SDS011;4336;49.310;8.646;2023-02-28T04:39:22;10.60;;;9.50;;
8596;SDS011;4336;49.310;8.646;2023-02-28T04:41:49;11.33;;;10.23;;
8596;SDS011;4336;49.310;8.646;2023-02-28T04:44:15;12.13;;;10.93;;
8596;SDS011;4336;49.310;8.646;2023-02-28T04:46:42;13.17;;;10.73;;
8596;SDS011;4336;49.310;8.646;2023-02-28T04:49:09;9.83;;;8.87;;
8596;SDS011;4336;49.310;8.646;2023-02-28T04:51:36;11.90;;;10.70;;
8596;SDS011;4336;49.310;8.646;2023-02-28T04:54:03;13.47;;;11.53;;
8596;SDS011;4336;49.310;8.646;2023-02-28T04:56:29;12.07;;;10.87;;
8596;SDS011;4336;49.310;8.646;2023-02-28T04:58:55;11.37;;;10.27;;
8596;SDS011;4336;49.310;8.646;2023-02-28T05:03:55;11.30;;;10.10;;
8596;SDS011;4336;49.310;8.646;2023-02-28T05:06:22;12.47;;;11.23;;
8596;SDS011;4336;49.310;8.646;2023-02-28T05:08:48;12.53;;;11.33;;
8596;SDS011;4336;49.310;8.646;2023-02-28T05:11:16;12.33;;;11.10;;
8596;SDS011;4336;49.310;8.646;2023-02-28T05:13:43;13.07;;;10.87;;
8596;SDS011;4336;49.310;8.646;2023-02-28T05:16:09;11.63;;;10.50;;
8596;SDS011;4336;49.310;8.646;2023-02-28T05:18:36;12.20;;;11.10;;
8596;SDS011;4336;49.310;8.646;2023-02-28T05:21:02;12.67;;;10.57;;
8596;SDS011;4336;49.310;8.646;2023-02-28T05:23:28;10.80;;;9.80;;
8596;SDS011;4336;49.310;8.646;2023-02-28T05:25:54;13.20;;;11.03;;
8596;SDS011;4336;49.310;8.646;2023-02-28T05:28:20;13.00;;;11.80;;
8596;SDS011;4336;49.310;8.646;2023-02-28T05:30:47;12.50;;;11.20;;
8596;SDS011;4336;49.310;8.646;2023-02-28T05:33:13;12.23;;;10.93;;
8596;SDS011;4336;49.310;8.646;2023-02-28T05:35:39;13.93;;;10.83;;
8596;SDS011;4336;49.310;8.646;2023-02-28T05:38:06;12.27;;;11.07;;
8596;SDS011;4336;49.310;8.646;2023-02-28T05:40:32;11.77;;;10.67;;
8596;SDS011;4336;49.310;8.646;2023-02-28T05:42:58;12.17;;;10.93;;
8596;SDS011;4336;49.310;8.646;2023-02-28T05:45:24;11.97;;;10.87;;
8596;SDS011;4336;49.310;8.646;2023-02-28T05:47:54;12.53;;;11.23;;
8596;SDS011;4336;49.310;8.646;2023-02-28T05:50:21;14.33;;;11.40;;
8596;SDS011;4336;49.310;8.646;2023-02-28T05:52:50;12.00;;;9.53;;
8596;SDS011;4336;49.310;8.646;2023-02-28T05:55:17;11.70;;;10.60;;
8596;SDS011;4336;49.310;8.646;2023-02-28T05:57:43;12.20;;;11.00;;
8596;SDS011;4336;49.310;8.646;2023-02-28T06:00:10;12.50;;;10.70;;
8596;SDS011;4336;49.310;8.646;2023-02-28T06:02:39;12.27;;;11.07;;
8596;SDS011;4336;49.310;8.646;2023-02-28T06:05:07;11.97;;;10.87;;
8596;SDS011;4336;49.310;8.646;2023-02-28T06:07:34;11.77;;;10.60;;
8596;SDS011;4336;49.310;8.646;2023-02-28T06:10:00;10.07;;;9.07;;
8596;SDS011;4336;49.310;8.646;2023-02-28T06:12:26;12.53;;;11.33;;
8596;SDS011;4336;49.310;8.646;2023-02-28T06:14:52;12.27;;;11.07;;
8596;SDS011;4336;49.310;8.646;2023-02-28T06:17:18;13.63;;;12.00;;
8596;SDS011;4336;49.310;8.646;2023-02-28T06:19:44;12.70;;;11.50;;
8596;SDS011;4336;49.310;8.646;2023-02-28T06:22:11;10.30;;;9.20;;
8596;SDS011;4336;49.310;8.646;2023-02-28T06:24:37;12.33;;;11.10;;
8596;SDS011;4336;49.310;8.646;2023-02-28T06:27:03;13.03;;;11.57;;
8596;SDS011;4336;49.310;8.646;2023-02-28T06:29:33;12.70;;;11.40;;
8596;SDS011;4336;49.310;8.646;2023-02-28T06:32:00;12.97;;;11.60;;
8596;SDS011;4336;49.310;8.646;2023-02-28T06:34:26;12.20;;;10.97;;
8596;SDS011;4336;49.310;8.646;2023-02-28T06:36:52;12.50;;;11.13;;
8596;SDS011;4336;49.310;8.646;2023-02-28T06:39:18;12.70;;;11.50;;
8596;SDS011;4336;49.310;8.646;2023-02-28T06:41:45;14.27;;;11.87;;
8596;SDS011;4336;49.310;8.646;2023-02-28T06:44:16;13.27;;;11.87;;
8596;SDS011;4336;49.310;8.646;2023-02-28T06:46:43;12.57;;;11.33;;
8596;SDS011;4336;49.310;8.646;2023-02-28T06:49:09;12.03;;;10.83;;
8596;SDS011;4336;49.310;8.646;2023-02-28T06:51:37;12.63;;;11.37;;
8596;SDS011;4336;49.310;8.646;2023-02-28T06:54:04;12.90;;;11.70;;
8596;SDS011;4336;49.310;8.646;2023-02-28T06:56:30;14.00;;;11.67;;
8596;SDS011;4336;49.310;8.646;2023-02-28T06:58:57;12.50;;;11.37;;
8596;SDS011;4336;49.310;8.646;2023-02-28T07:01:23;12.87;;;11.57;;
8596;SDS011;4336;49.310;8.646;2023-02-28T07:03:49;11.73;;;10.63;;
8596;SDS011;4336;49.310;8.646;2023-02-28T07:06:26;13.30;;;11.90;;
8596;SDS011;4336;49.310;8.646;2023-02-28T07:08:53;13.17;;;11.83;;
8596;SDS011;4336;49.310;8.646;2023-02-28T07:11:19;23.23;;;18.37;;
8596;SDS011;4336;49.310;8.646;2023-02-28T07:13:47;12.77;;;11.57;;
8596;SDS011;4336;49.310;8.646;2023-02-28T07:16:14;12.67;;;11.47;;
8596;SDS011;4336;49.310;8.646;2023-02-28T07:18:40;12.93;;;11.73;;
8596;SDS011;4336;49.310;8.646;2023-02-28T07:21:07;17.80;;;9.70;;
8596;SDS011;4336;49.310;8.646;2023-02-28T07:23:34;12.57;;;11.37;;
8596;SDS011;4336;49.310;8.646;2023-02-28T07:26:00;12.60;;;10.27;;
8596;SDS011;4336;49.310;8.646;2023-02-28T07:28:26;12.73;;;11.43;;
8596;SDS011;4336;49.310;8.646;2023-02-28T07:30:52;13.23;;;12.00;;
8596;SDS011;4336;49.310;8.646;2023-02-28T07:33:19;13.00;;;11.80;;
8596;SDS011;4336;49.310;8.646;2023-02-28T07:35:45;13.07;;;11.47;;
8596;SDS011;4336;49.310;8.646;2023-02-28T07:38:11;10.80;;;9.70;;
8596;SDS011;4336;49.310;8.646;2023-02-28T07:40:38;12.70;;;11.43;;
8596;SDS011;4336;49.310;8.646;2023-02-28T07:43:05;13.27;;;11.93;;
8596;SDS011;4336;49.310;8.646;2023-02-28T07:45:31;13.10;;;11.70;;
8596;SDS011;4336;49.310;8.646;2023-02-28T07:47:59;12.77;;;11.57;;
8596;SDS011;4336;49.310;8.646;2023-02-28T07:50:25;13.40;;;12.00;;
8596;SDS011;4336;49.310;8.646;2023-02-28T07:52:56;12.90;;;11.70;;
8596;SDS011;4336;49.310;8.646;2023-02-28T07:55:22;12.40;;;11.23;;
8596;SDS011;4336;49.310;8.646;2023-02-28T07:57:48;12.90;;;11.77;;
8596;SDS011;4336;49.310;8.646;2023-02-28T08:00:14;12.97;;;11.77;;
8596;SDS011;4336;49.310;8.646;2023-02-28T08:02:41;13.13;;;11.67;;
8596;SDS011;4336;49.310;8.646;2023-02-28T08:05:06;13.03;;;11.73;;
8596;SDS011;4336;49.310;8.646;2023-02-28T08:07:33;14.30;;;12.17;;
8596;SDS011;4336;49.310;8.646;2023-02-28T08:09:59;13.33;;;11.73;;
8596;SDS011;4336;49.310;8.646;2023-02-28T08:12:25;13.73;;;12.33;;
8596;SDS011;4336;49.310;8.646;2023-02-28T08:14:51;13.03;;;11.70;;
8596;SDS011;4336;49.310;8.646;2023-02-28T08:17:17;12.93;;;11.67;;
8596;SDS011;4336;49.310;8.646;2023-02-28T08:19:46;16.13;;;11.83;;
8596;SDS011;4336;49.310;8.646;2023-02-28T08:22:13;13.40;;;12.10;;
8596;SDS011;4336;49.310;8.646;2023-02-28T08:24:40;12.63;;;11.27;;
8596;SDS011;4336;49.310;8.646;2023-02-28T08:27:08;16.53;;;14.87;;
8596;SDS011;4336;49.310;8.646;2023-02-28T08:29:36;12.63;;;11.33;;
8596;SDS011;4336;49.310;8.646;2023-02-28T08:32:02;15.07;;;13.60;;
8596;SDS011;4336;49.310;8.646;2023-02-28T08:34:28;16.13;;;12.47;;
8596;SDS011;4336;49.310;8.646;2023-02-28T08:36:54;12.87;;;11.67;;
8596;SDS011;4336;49.310;8.646;2023-02-28T08:39:21;14.00;;;12.80;;
8596;SDS011;4336;49.310;8.646;2023-02-28T08:41:47;12.83;;;11.63;;
8596;SDS011;4336;49.310;8.646;2023-02-28T08:44:13;13.33;;;11.03;;
8596;SDS011;4336;49.310;8.646;2023-02-28T08:46:39;14.53;;;13.23;;
8596;SDS011;4336;49.310;8.646;2023-02-28T08:49:05;13.37;;;12.03;;
8596;SDS011;4336;49.310;8.646;2023-02-28T08:51:32;14.07;;;12.53;;
8596;SDS011;4336;49.310;8.646;2023-02-28T08:53:59;17.30;;;14.03;;
8596;SDS011;4336;49.310;8.646;2023-02-28T08:56:26;13.67;;;12.23;;
8596;SDS011;4336;49.310;8.646;2023-02-28T08:58:53;13.87;;;12.53;;
8596;SDS011;4336;49.310;8.646;2023-02-28T09:01:21;13.33;;;11.97;;
8596;SDS011;4336;49.310;8.646;2023-02-28T09:03:48;13.33;;;11.93;;
8596;SDS011;4336;49.310;8.646;2023-02-28T09:06:15;12.60;;;10.80;;
8596;SDS011;4336;49.310;8.646;2023-02-28T09:08:42;14.03;;;12.67;;
8596;SDS011;4336;49.310;8.646;2023-02-28T09:11:08;13.07;;;11.77;;
8596;SDS011;4336;49.310;8.646;2023-02-28T09:13:35;13.43;;;12.03;;
8596;SDS011;4336;49.310;8.646;2023-02-28T09:16:01;13.87;;;12.63;;
8596;SDS011;4336;49.310;8.646;2023-02-28T09:18:28;13.37;;;12.07;;
8596;SDS011;4336;49.310;8.646;2023-02-28T09:20:54;12.13;;;11.03;;
8596;SDS011;4336;49.310;8.646;2023-02-28T09:23:20;13.20;;;12.00;;
8596;SDS011;4336;49.310;8.646;2023-02-28T09:28:13;12.30;;;11.13;;
8596;SDS011;4336;49.310;8.646;2023-02-28T09:30:46;15.47;;;11.57;;
8596;SDS011;4336;49.310;8.646;2023-02-28T09:33:13;13.73;;;12.17;;
8596;SDS011;4336;49.310;8.646;2023-02-28T09:35:39;12.23;;;10.97;;
8596;SDS011;4336;49.310;8.646;2023-02-28T09:38:05;21.37;;;13.00;;
8596;SDS011;4336;49.310;8.646;2023-02-28T09:40:35;14.00;;;12.70;;
8596;SDS011;4336;49.310;8.646;2023-02-28T09:43:01;14.43;;;12.97;;
8596;SDS011;4336;49.310;8.646;2023-02-28T09:48:06;13.90;;;12.40;;
8596;SDS011;4336;49.310;8.646;2023-02-28T09:53:02;14.47;;;12.67;;
8596;SDS011;4336;49.310;8.646;2023-02-28T09:57:58;12.97;;;11.77;;
8596;SDS011;4336;49.310;8.646;2023-02-28T10:00:33;13.40;;;12.10;;
8596;SDS011;4336;49.310;8.646;2023-02-28T10:08:14;14.80;;;13.40;;
8596;SDS011;4336;49.310;8.646;2023-02-28T10:10:47;13.60;;;12.40;;
8596;SDS011;4336;49.310;8.646;2023-02-28T10:13:27;16.03;;;12.30;;
8596;SDS011;4336;49.310;8.646;2023-02-28T10:15:58;14.03;;;12.73;;
8596;SDS011;4336;49.310;8.646;2023-02-28T10:18:27;13.63;;;12.33;;
8596;SDS011;4336;49.310;8.646;2023-02-28T10:20:56;14.93;;;13.40;;
8596;SDS011;4336;49.310;8.646;2023-02-28T10:23:28;14.10;;;12.80;;
8596;SDS011;4336;49.310;8.646;2023-02-28T10:26:01;12.17;;;11.03;;
8596;SDS011;4336;49.310;8.646;2023-02-28T10:28:29;14.30;;;12.90;;
8596;SDS011;4336;49.310;8.646;2023-02-28T10:30:56;16.80;;;13.63;;
8596;SDS011;4336;49.310;8.646;2023-02-28T10:33:24;14.63;;;13.23;;
8596;SDS011;4336;49.310;8.646;2023-02-28T10:35:51;16.00;;;12.10;;
8596;SDS011;4336;49.310;8.646;2023-02-28T10:38:19;14.77;;;12.87;;
8596;SDS011;4336;49.310;8.646;2023-02-28T10:40:46;13.83;;;12.33;;
8596;SDS011;4336;49.310;8.646;2023-02-28T10:48:30;14.27;;;12.97;;
8596;SDS011;4336;49.310;8.646;2023-02-28T10:50:58;14.03;;;12.53;;
8596;SDS011;4336;49.310;8.646;2023-02-28T10:53:36;15.80;;;14.20;;
8596;SDS011;4336;49.310;8.646;2023-02-28T11:04:18;13.43;;;12.23;;
8596;SDS011;4336;49.310;8.646;2023-02-28T11:06:45;14.37;;;12.50;;
8596;SDS011;4336;49.310;8.646;2023-02-28T11:09:18;15.87;;;14.33;;
8596;SDS011;4336;49.310;8.646;2023-02-28T11:11:50;15.67;;;11.97;;
8596;SDS011;4336;49.310;8.646;2023-02-28T11:14:22;15.27;;;13.87;;
8596;SDS011;4336;49.310;8.646;2023-02-28T11:16:54;14.63;;;13.30;;
8596;SDS011;4336;49.310;8.646;2023-02-28T11:19:29;14.43;;;13.13;;
8596;SDS011;4336;49.310;8.646;2023-02-28T11:22:01;17.53;;;12.87;;
8596;SDS011;4336;49.310;8.646;2023-02-28T11:24:30;16.20;;;14.67;;
8596;SDS011;4336;49.310;8.646;2023-02-28T11:26:59;15.80;;;13.97;;
8596;SDS011;4336;49.310;8.646;2023-02-28T11:29:27;16.00;;;14.40;;
8596;SDS011;4336;49.310;8.646;2023-02-28T11:32:04;13.80;;;12.50;;
8596;SDS011;4336;49.310;8.646;2023-02-28T11:34:31;14.23;;;12.70;;
8596;SDS011;4336;49.310;8.646;2023-02-28T11:36:58;14.83;;;13.53;;
8596;SDS011;4336;49.310;8.646;2023-02-28T11:39:25;15.90;;;14.37;;
8596;SDS011;4336;49.310;8.646;2023-02-28T11:47:01;16.47;;;14.87;;
8596;SDS011;4336;49.310;8.646;2023-02-28T11:49:49;15.30;;;13.90;;
8596;SDS011;4336;49.310;8.646;2023-02-28T11:57:40;15.20;;;13.70;;
8596;SDS011;4336;49.310;8.646;2023-02-28T12:05:17;16.07;;;14.47;;
8596;SDS011;4336;49.310;8.646;2023-02-28T12:10:35;16.50;;;15.00;;
8596;SDS011;4336;49.310;8.646;2023-02-28T12:13:21;14.47;;;13.00;;
8596;SDS011;4336;49.310;8.646;2023-02-28T12:16:13;13.93;;;12.53;;
8596;SDS011;4336;49.310;8.646;2023-02-28T12:21:47;14.37;;;13.00;;
8596;SDS011;4336;49.310;8.646;2023-02-28T12:26:52;14.27;;;12.97;;
8596;SDS011;4336;49.310;8.646;2023-02-28T12:32:13;14.97;;;13.53;;
8596;SDS011;4336;49.310;8.646;2023-02-28T12:34:42;13.67;;;12.47;;
8596;SDS011;4336;49.310;8.646;2023-02-28T12:37:15;13.70;;;12.40;;
8596;SDS011;4336;49.310;8.646;2023-02-28T12:39:46;14.53;;;13.07;;
8596;SDS011;4336;49.310;8.646;2023-02-28T12:42:26;14.60;;;13.20;;
8596;SDS011;4336;49.310;8.646;2023-02-28T12:44:54;15.23;;;13.73;;
8596;SDS011;4336;49.310;8.646;2023-02-28T12:47:23;14.80;;;13.40;;
8596;SDS011;4336;49.310;8.646;2023-02-28T12:49:59;14.50;;;13.00;;
8596;SDS011;4336;49.310;8.646;2023-02-28T12:52:52;14.43;;;13.00;;
8596;SDS011;4336;49.310;8.646;2023-02-28T12:55:45;15.57;;;13.90;;
8596;SDS011;4336;49.310;8.646;2023-02-28T13:11:38;15.50;;;13.90;;
8596;SDS011;4336;49.310;8.646;2023-02-28T13:14:30;15.20;;;13.70;;
8596;SDS011;4336;49.310;8.646;2023-02-28T13:17:09;15.63;;;13.10;;
8596;SDS011;4336;49.310;8.646;2023-02-28T13:24:54;14.53;;;13.13;;
8596;SDS011;4336;49.310;8.646;2023-02-28T13:27:22;14.87;;;13.40;;
8596;SDS011;4336;49.310;8.646;2023-02-28T13:36:05;14.67;;;13.30;;
8596;SDS011;4336;49.310;8.646;2023-02-28T13:38:33;14.60;;;13.30;;
8596;SDS011;4336;49.310;8.646;2023-02-28T13:51:45;13.30;;;12.20;;
8596;SDS011;4336;49.310;8.646;2023-02-28T14:02:51;15.83;;;14.33;;
8596;SDS011;4336;49.310;8.646;2023-02-28T14:05:27;16.20;;;14.60;;
8596;SDS011;4336;49.310;8.646;2023-02-28T14:07:58;15.53;;;14.23;;
8596;SDS011;4336;49.310;8.646;2023-02-28T14:10:26;15.67;;;14.17;;
8596;SDS011;4336;49.310;8.646;2023-02-28T14:12:58;17.80;;;16.00;;
8596;SDS011;4336;49.310;8.646;2023-02-28T14:17:56;14.87;;;13.47;;
8596;SDS011;4336;49.310;8.646;2023-02-28T14:20:45;18.97;;;14.30;;
8596;SDS011;4336;49.310;8.646;2023-02-28T14:25:52;15.77;;;13.90;;
8596;SDS011;4336;49.310;8.646;2023-02-28T14:31:09;14.17;;;12.83;;
8596;SDS011;4336;49.310;8.646;2023-02-28T14:33:46;13.60;;;12.23;;
8596;SDS011;4336;49.310;8.646;2023-02-28T14:36:21;15.67;;;14.10;;
8596;SDS011;4336;49.310;8.646;2023-02-28T14:38:52;15.33;;;13.83;;
8596;SDS011;4336;49.310;8.646;2023-02-28T14:41:20;14.47;;;12.60;;
8596;SDS011;4336;49.310;8.646;2023-02-28T14:43:51;17.37;;;13.83;;
8596;SDS011;4336;49.310;8.646;2023-02-28T14:46:18;15.07;;;13.47;;
8596;SDS011;4336;49.310;8.646;2023-02-28T14:48:45;15.00;;;13.70;;
8596;SDS011;4336;49.310;8.646;2023-02-28T14:51:17;14.20;;;12.80;;
8596;SDS011;4336;49.310;8.646;2023-02-28T14:53:44;16.03;;;14.17;;
8596;SDS011;4336;49.310;8.646;2023-02-28T14:56:21;16.80;;;15.27;;
8596;SDS011;4336;49.310;8.646;2023-02-28T14:58:54;14.80;;;12.97;;
8596;SDS011;4336;49.310;8.646;2023-02-28T15:01:21;17.47;;;13.27;;
8596;SDS011;4336;49.310;8.646;2023-02-28T15:03:48;17.40;;;15.80;;
8596;SDS011;4336;49.310;8.646;2023-02-28T15:06:22;19.13;;;15.10;;
8596;SDS011;4336;49.310;8.646;2023-02-28T15:09:06;17.10;;;15.40;;
8596;SDS011;4336;49.310;8.646;2023-02-28T15:11:33;17.40;;;15.77;;
8596;SDS011;4336;49.310;8.646;2023-02-28T15:13:59;15.43;;;13.90;;
8596;SDS011;4336;49.310;8.646;2023-02-28T15:16:30;17.53;;;15.73;;
8596;SDS011;4336;49.310;8.646;2023-02-28T15:18:59;18.53;;;16.73;;
8596;SDS011;4336;49.310;8.646;2023-02-28T15:21:30;18.97;;;16.90;;
8596;SDS011;4336;49.310;8.646;2023-02-28T15:26:30;17.20;;;15.50;;
8596;SDS011;4336;49.310;8.646;2023-02-28T15:29:02;24.10;;;15.63;;
8596;SDS011;4336;49.310;8.646;2023-02-28T15:31:34;17.60;;;15.80;;
8596;SDS011;4336;49.310;8.646;2023-02-28T15:34:05;18.87;;;16.97;;
8596;SDS011;4336;49.310;8.646;2023-02-28T15:36:32;16.03;;;14.43;;
8596;SDS011;4336;49.310;8.646;2023-02-28T15:39:03;16.23;;;14.73;;
8596;SDS011;4336;49.310;8.646;2023-02-28T15:41:36;15.90;;;14.47;;
8596;SDS011;4336;49.310;8.646;2023-02-28T15:46:54;16.30;;;14.80;;
8596;SDS011;4336;49.310;8.646;2023-02-28T15:49:21;19.43;;;15.80;;
8596;SDS011;4336;49.310;8.646;2023-02-28T15:51:49;20.07;;;18.17;;
8596;SDS011;4336;49.310;8.646;2023-02-28T15:54:19;16.20;;;14.47;;
8596;SDS011;4336;49.310;8.646;2023-02-28T15:56:46;19.07;;;15.37;;
8596;SDS011;4336;49.310;8.646;2023-02-28T15:59:17;18.33;;;16.53;;
8596;SDS011;4336;49.310;8.646;2023-02-28T16:01:44;18.00;;;16.27;;
8596;SDS011;4336;49.310;8.646;2023-02-28T16:04:18;15.27;;;13.67;;
8596;SDS011;4336;49.310;8.646;2023-02-28T16:06:44;15.57;;;13.60;;
8596;SDS011;4336;49.310;8.646;2023-02-28T16:09:12;16.13;;;14.63;;
8596;SDS011;4336;49.310;8.646;2023-02-28T16:11:40;17.97;;;16.17;;
8596;SDS011;4336;49.310;8.646;2023-02-28T16:14:10;16.90;;;15.20;;
8596;SDS011;4336;49.310;8.646;2023-02-28T16:16:41;19.30;;;17.23;;
8596;SDS011;4336;49.310;8.646;2023-02-28T16:19:07;17.23;;;15.53;;
8596;SDS011;4336;49.310;8.646;2023-02-28T16:21:34;16.27;;;14.77;;
8596;SDS011;4336;49.310;8.646;2023-02-28T16:24:00;17.37;;;15.07;;
8596;SDS011;4336;49.310;8.646;2023-02-28T16:26:26;16.83;;;15.13;;
8596;SDS011;4336;49.310;8.646;2023-02-28T16:28:53;14.77;;;13.37;;
8596;SDS011;4336;49.310;8.646;2023-02-28T16:31:20;17.07;;;15.40;;
8596;SDS011;4336;49.310;8.646;2023-02-28T16:33:46;18.97;;;17.07;;
8596;SDS011;4336;49.310;8.646;2023-02-28T16:36:17;16.83;;;15.13;;
8596;SDS011;4336;49.310;8.646;2023-02-28T16:38:44;15.63;;;14.07;;
8596;SDS011;4336;49.310;8.646;2023-02-28T16:41:20;18.13;;;16.47;;
8596;SDS011;4336;49.310;8.646;2023-02-28T16:43:47;16.87;;;15.17;;
8596;SDS011;4336;49.310;8.646;2023-02-28T16:46:14;17.80;;;16.03;;
8596;SDS011;4336;49.310;8.646;2023-02-28T16:48:42;16.47;;;14.77;;
8596;SDS011;4336;49.310;8.646;2023-02-28T16:51:11;16.73;;;15.23;;
8596;SDS011;4336;49.310;8.646;2023-02-28T16:53:37;18.57;;;16.87;;
8596;SDS011;4336;49.310;8.646;2023-02-28T16:56:04;14.87;;;13.33;;
8596;SDS011;4336;49.310;8.646;2023-02-28T16:58:32;17.73;;;15.93;;
8596;SDS011;4336;49.310;8.646;2023-02-28T17:01:01;17.33;;;15.63;;
8596;SDS011;4336;49.310;8.646;2023-02-28T17:03:27;17.20;;;15.60;;
8596;SDS011;4336;49.310;8.646;2023-02-28T17:05:54;16.20;;;14.67;;
8596;SDS011;4336;49.310;8.646;2023-02-28T17:08:20;18.17;;;16.37;;
8596;SDS011;4336;49.310;8.646;2023-02-28T17:10:46;16.67;;;14.97;;
8596;SDS011;4336;49.310;8.646;2023-02-28T17:13:12;23.50;;;16.13;;
8596;SDS011;4336;49.310;8.646;2023-02-28T17:15:39;21.30;;;16.83;;
8596;SDS011;4336;49.310;8.646;2023-02-28T17:18:06;25.83;;;15.50;;
8596;SDS011;4336;49.310;8.646;2023-02-28T17:20:33;17.80;;;15.40;;
8596;SDS011;4336;49.310;8.646;2023-02-28T17:23:00;20.37;;;15.97;;
8596;SDS011;4336;49.310;8.646;2023-02-28T17:25:26;18.77;;;16.47;;